Hartford Brainard Airport Hartford US
ICAO: KHFD
IATA: HFD
Category: Medium
Scheduled Services: No

Elevation: 18 ft
TransAlt. 18000 ft.

Airport Communications:
BRADLEY APP/DEP:127.8
ATIS:126.45
BRADLEY CLNC DEL:121.6
CTAF:119.6
GND:121.6
BRAINARD TWR:119.6
UNICOM:122.95

KHFD Zoom In..

If you have problems with the map follow the link
https://www.worldairports.se/pages/airport.php?
ICAO=KHFD

Runways:

(A) RW 02 length 4417 ft width 150 ft
---- / hdg 24

(B) RW 11 length 2314 ft width 71 ft
---- / hdg 114

(C) RW 20 length 4417 ft width 150 ft
---- / hdg 204

(D) RW 29 length 2314 ft width 71 ft
---- / hdg 294

Location; KHFD
Day. 22 / Time. 13.53 Zulu
* Altimeter: 30.49
* Temperature: -09° c. -15.8°f.
* Wind from: 000° Speed 00 kn.
Dewpoint: -12° c.
Visibility: 10 Statute Miles.
Clouds: Clear (automated report).

KHFD 221353Z 00000KT 10SM CLR M09/M12 A3049 RMK AO2 SLP323 T10891117


Wind - Calm.

 
 
jpsmedia worldairports.se 2020   terms of use